Time;durP1;ratioP1;P1;durP2;ratioP2;P2;SDS_P1;SDS_P2;PMS_P1;PMS_P2;Temp;Humidity;BMP_temperature;BMP_pressure;BME280_temperature;BME280_humidity;BME280_pressure;Samples;Min_cycle;Max_cycle;Signal;HPM_P1;HPM_P2
2021/01/12 00:01:05;;;;;;;;;98.00;81.80;;;;;2.96;41.72;98764.00;6156612;28;124112;-58
2021/01/12 00:04:07;;;;;;;;;95.00;80.40;;;;;2.97;41.66;98761.16;6158030;28;126580;-57
2021/01/12 00:07:10;;;;;;;;;92.60;81.40;;;;;3.01;41.46;98766.97;6157750;28;126652;-57
2021/01/12 00:10:12;;;;;;;;;90.40;80.00;;;;;3.00;41.37;98755.47;6158089;28;125056;-58
2021/01/12 00:13:13;;;;;;;;;80.33;70.00;;;;;3.15;41.96;98762.72;6157737;28;124452;-57
2021/01/12 00:16:19;;;;;;;;;81.20;73.00;;;;;3.24;41.42;98753.66;6158169;28;127663;-58
2021/01/12 00:19:20;;;;;;;;;80.00;69.00;;;;;3.28;41.67;98754.94;6151810;28;124757;-58
2021/01/12 00:22:22;;;;;;;;;81.00;70.50;;;;;3.33;41.40;98749.91;6157897;28;125059;-58
2021/01/12 00:25:23;;;;;;;;;85.40;69.60;;;;;3.37;41.08;98748.56;6155432;28;126792;-58
2021/01/12 00:28:35;;;;;;;;;85.40;72.60;;;;;3.20;41.30;98710.56;6145140;28;123883;-58
2021/01/12 00:31:39;;;;;;;;;84.60;70.60;;;;;3.04;40.88;98698.19;6106498;28;126216;-58
2021/01/12 00:34:40;;;;;;;;;82.80;72.60;;;;;3.43;40.89;98753.16;6152477;28;126175;-58
2021/01/12 00:37:42;;;;;;;;;84.00;70.50;;;;;3.34;40.62;98748.91;6141256;28;124139;-58
2021/01/12 00:40:43;;;;;;;;;87.00;73.00;;;;;3.24;40.46;98743.00;6154332;28;126558;-57
2021/01/12 00:43:45;;;;;;;;;85.00;71.00;;;;;3.19;40.13;98748.03;6167834;28;125287;-58
2021/01/12 00:46:47;;;;;;;;;79.25;68.75;;;;;3.08;40.59;98749.25;6157065;28;126440;-57
2021/01/12 00:49:49;;;;;;;;;91.40;78.20;;;;;3.03;40.99;98752.44;6158816;28;127040;-57
2021/01/12 00:52:51;;;;;;;;;91.60;77.60;;;;;2.97;41.01;98761.16;6161504;28;125126;-58
2021/01/12 00:55:52;;;;;;;;;94.60;81.60;;;;;2.96;41.01;98758.69;6161588;28;125333;-58
2021/01/12 00:58:55;;;;;;;;;98.00;81.00;;;;;2.88;41.03;98756.88;6161086;28;124986;-57
2021/01/12 01:02:01;;;;;;;;;98.40;83.00;;;;;2.86;40.74;98750.09;6160741;28;123953;-58
2021/01/12 01:05:04;;;;;;;;;97.40;83.60;;;;;2.63;40.68;98709.31;6160694;28;125023;-58
2021/01/12 01:08:05;;;;;;;;;91.80;79.00;;;;;2.76;40.46;98733.50;6145107;28;125019;-58
2021/01/12 01:11:07;;;;;;;;;88.25;76.00;;;;;2.61;39.89;98728.94;6159857;28;126358;-57
2021/01/12 01:14:10;;;;;;;;;98.50;81.75;;;;;2.49;39.89;98735.63;6161537;28;126775;-57
2021/01/12 01:17:11;;;;;;;;;92.50;79.00;;;;;2.40;39.95;98723.38;6160811;28;127270;-58
2021/01/12 01:20:13;;;;;;;;;89.00;79.00;;;;;2.10;39.98;98686.97;6161320;28;126630;-58
2021/01/12 01:23:15;;;;;;;;;99.60;83.00;;;;;2.02;40.28;98684.34;6160013;28;127571;-58
2021/01/12 01:26:17;;;;;;;;;98.25;83.50;;;;;2.17;40.30;98725.16;6145855;28;126252;-58
2021/01/12 01:29:19;;;;;;;;;99.50;83.50;;;;;1.90;40.35;98707.00;6159168;28;127254;-57
2021/01/12 01:32:20;;;;;;;;;91.00;77.00;;;;;2.09;40.70;98714.56;6159247;28;127794;-58
2021/01/12 01:35:22;;;;;;;;;79.60;69.40;;;;;2.11;41.66;98716.03;6160648;28;126377;-58
2021/01/12 01:38:31;;;;;;;;;87.80;75.40;;;;;2.11;41.53;98715.19;6161147;28;125788;-58
2021/01/12 01:41:33;;;;;;;;;90.40;76.00;;;;;2.10;40.90;98710.91;6155996;28;126366;-58
2021/01/12 01:44:38;;;;;;;;;89.00;73.00;;;;;2.13;40.82;98706.06;6148873;28;126495;-57
2021/01/12 01:47:42;;;;;;;;;88.20;77.00;;;;;2.15;41.20;98706.72;6154925;28;125673;-58
2021/01/12 01:50:44;;;;;;;;;88.60;76.00;;;;;2.17;41.16;98698.56;6160534;28;124015;-58
2021/01/12 01:53:46;;;;;;;;;80.20;69.20;;;;;1.84;41.30;98643.88;6144674;28;126656;-58
2021/01/12 01:56:48;;;;;;;;;85.25;73.00;;;;;2.15;40.74;98695.25;6160575;28;126817;-58
2021/01/12 01:59:50;;;;;;;;;85.00;71.00;;;;;2.16;41.09;98694.25;6159531;28;126392;-58
2021/01/12 02:03:06;;;;;;;;;87.00;71.00;;;;;2.16;41.08;98691.59;6144870;28;126791;-58
2021/01/12 02:06:19;;;;;;;;;81.80;69.00;;;;;2.20;40.98;98684.91;6160421;28;125862;-57
2021/01/12 02:09:47;;;;;;;;;75.25;62.75;;;;;2.25;41.25;98685.22;6157990;28;126772;-58
2021/01/12 02:12:56;;;;;;;;;72.00;56.00;;;;;2.36;41.54;98668.88;6149609;28;124419;-58
2021/01/12 02:16:00;;;;;;;;;75.00;60.60;;;;;2.37;41.25;98662.56;6158974;28;126237;-58
2021/01/12 02:19:03;;;;;;;;;73.00;58.00;;;;;2.36;41.06;98654.75;6159179;28;125586;-57
2021/01/12 02:22:07;;;;;;;;;70.40;53.00;;;;;2.39;41.52;98660.56;6148980;28;124814;-57
2021/01/12 02:25:10;;;;;;;;;72.00;55.20;;;;;2.38;41.02;98650.91;6159613;28;125833;-58
2021/01/12 02:28:17;;;;;;;;;71.40;56.60;;;;;2.34;41.05;98641.63;6152605;28;125262;-58
2021/01/12 02:31:18;;;;;;;;;70.80;53.20;;;;;2.34;40.98;98631.00;6146048;28;125872;-58
2021/01/12 02:34:23;;;;;;;;;68.00;53.00;;;;;2.48;40.54;98638.22;6159662;28;126457;-57
2021/01/12 02:37:25;;;;;;;;;67.00;51.00;;;;;2.55;40.49;98633.00;6158983;28;126049;-58
2021/01/12 02:40:27;;;;;;;;;67.50;50.25;;;;;2.24;40.21;98571.03;6158785;28;125267;-58
2021/01/12 02:43:28;;;;;;;;;65.50;50.00;;;;;2.66;39.94;98615.78;6122042;28;125039;-58
2021/01/12 02:46:31;;;;;;;;;61.00;47.40;;;;;2.76;40.14;98613.72;6145411;28;127500;-58
2021/01/12 02:49:33;;;;;;;;;58.00;45.00;;;;;2.86;40.11;98612.47;6156592;28;126005;-58
2021/01/12 02:52:34;;;;;;;;;57.75;44.25;;;;;2.86;40.46;98595.66;6156166;28;124711;-57
2021/01/12 02:55:35;;;;;;;;;56.75;45.00;;;;;2.97;39.89;98603.22;6157601;28;126656;-57
2021/01/12 02:58:37;;;;;;;;;56.00;45.75;;;;;3.00;40.05;98594.88;6145227;28;127827;-57
2021/01/12 03:01:38;;;;;;;;;67.20;51.20;;;;;2.85;39.69;98578.03;6159760;28;126045;-58
2021/01/12 03:04:40;;;;;;;;;69.75;53.50;;;;;2.79;39.27;98578.75;6158375;28;127508;-58
2021/01/12 03:07:41;;;;;;;;;67.00;52.00;;;;;2.67;39.06;98578.38;6159123;28;125558;-58
2021/01/12 03:10:43;;;;;;;;;73.25;56.50;;;;;2.56;39.27;98578.78;6158938;28;126734;-57
2021/01/12 03:13:44;;;;;;;;;70.25;53.00;;;;;2.42;39.04;98567.09;6158325;28;126712;-58
2021/01/12 03:16:46;;;;;;;;;69.75;52.75;;;;;2.36;39.69;98553.66;6148161;28;126125;-57
2021/01/12 03:19:47;;;;;;;;;70.50;53.75;;;;;2.34;39.58;98555.69;6141973;28;126078;-58
2021/01/12 03:22:48;;;;;;;;;67.00;50.00;;;;;2.29;39.28;98542.09;6151174;28;125438;-58
2021/01/12 03:25:50;;;;;;;;;60.60;46.00;;;;;2.42;39.64;98552.94;6124799;28;126821;-58
2021/01/12 03:28:51;;;;;;;;;63.40;46.60;;;;;2.45;39.49;98542.78;6158901;28;125214;-57
2021/01/12 03:31:53;;;;;;;;;64.00;48.80;;;;;2.41;39.33;98530.84;6158030;28;126541;-58
2021/01/12 03:34:54;;;;;;;;;64.60;50.00;;;;;2.38;39.08;98531.22;6146200;28;125231;-58
2021/01/12 03:37:56;;;;;;;;;65.80;50.00;;;;;2.32;39.11;98526.59;6149993;28;125210;-58
2021/01/12 03:40:57;;;;;;;;;66.20;50.00;;;;;1.88;39.42;98473.25;6158184;28;126534;-57
2021/01/12 03:44:03;;;;;;;;;64.80;49.00;;;;;1.88;39.91;98489.19;6157918;28;126379;-58
2021/01/12 03:47:04;;;;;;;;;64.00;50.40;;;;;2.05;40.19;98506.66;6157572;28;126315;-57
2021/01/12 03:50:08;;;;;;;;;64.00;50.20;;;;;1.99;39.92;98504.75;6141349;28;124890;-58
2021/01/12 03:53:09;;;;;;;;;69.40;50.00;;;;;1.96;40.01;98505.06;6157339;28;126462;-58
2021/01/12 03:56:14;;;;;;;;;69.80;51.80;;;;;1.91;39.81;98506.59;6141438;28;125197;-57
2021/01/12 03:59:15;;;;;;;;;68.75;53.00;;;;;1.83;40.21;98486.22;6158184;28;125901;-57
2021/01/12 04:02:17;;;;;;;;;68.40;51.00;;;;;1.85;39.93;98494.03;6157097;28;126358;-58
2021/01/12 04:05:19;;;;;;;;;70.40;52.00;;;;;1.83;39.84;98482.75;6142709;28;126558;-57
2021/01/12 04:08:20;;;;;;;;;69.00;53.00;;;;;1.78;39.79;98490.41;6151371;28;125402;-57
2021/01/12 04:11:21;;;;;;;;;70.60;53.40;;;;;1.49;40.23;98457.38;6157610;28;126681;-57
2021/01/12 04:14:23;;;;;;;;;71.75;53.75;;;;;1.55;39.84;98485.91;6157142;28;125197;-58
2021/01/12 04:17:24;;;;;;;;;69.00;53.20;;;;;1.45;40.01;98479.16;6157781;28;126468;-57
2021/01/12 04:20:26;;;;;;;;;70.40;56.40;;;;;1.39;40.37;98478.00;6157731;28;127486;-58
2021/01/12 04:23:28;;;;;;;;;71.20;54.20;;;;;1.13;40.25;98432.31;6158088;28;127555;-58
2021/01/12 04:26:29;;;;;;;;;72.60;57.60;;;;;1.38;39.84;98478.19;6161656;28;127441;-58
2021/01/12 04:29:31;;;;;;;;;73.00;54.60;;;;;1.32;40.30;98466.41;6146501;28;127739;-57
2021/01/12 04:32:32;;;;;;;;;71.40;55.00;;;;;1.33;40.14;98459.28;6156324;28;126587;-57
2021/01/12 04:35:34;;;;;;;;;70.00;55.75;;;;;1.29;40.13;98445.53;6162351;28;125000;-58
2021/01/12 04:38:35;;;;;;;;;72.60;56.80;;;;;1.33;39.64;98459.28;6161855;28;127787;-57
2021/01/12 04:41:37;;;;;;;;;71.50;54.00;;;;;1.30;39.72;98445.38;6145564;28;126529;-58
2021/01/12 04:44:38;;;;;;;;;70.25;53.50;;;;;1.24;40.12;98443.41;6161851;28;126587;-57
2021/01/12 04:47:39;;;;;;;;;69.50;53.00;;;;;1.32;39.94;98434.53;6159764;28;126247;-57
2021/01/12 04:50:43;;;;;;;;;70.00;51.60;;;;;1.36;39.94;98435.03;6160793;28;126713;-57
2021/01/12 04:53:48;;;;;;;;;70.33;54.00;;;;;1.39;40.05;98446.13;6127527;28;126649;-57
2021/01/12 04:56:50;;;;;;;;;68.80;52.00;;;;;0.67;39.86;98318.09;6149459;28;126306;-58
2021/01/12 04:59:51;;;;;;;;;69.00;51.00;;;;;1.28;39.97;98407.53;6152442;28;126525;-58
2021/01/12 05:03:00;;;;;;;;;65.60;49.60;;;;;1.16;40.60;98384.19;6148423;28;126896;-57
2021/01/12 05:06:03;;;;;;;;;67.00;52.00;;;;;1.27;40.24;98395.25;6156138;28;124592;-57
2021/01/12 05:09:05;;;;;;;;;69.00;53.00;;;;;1.28;39.85;98398.72;6160077;28;124929;-58
2021/01/12 05:12:12;;;;;;;;;68.00;51.25;;;;;1.23;39.58;98396.59;6155378;28;124788;-58
2021/01/12 05:15:15;;;;;;;;;61.40;47.00;;;;;1.25;40.33;98394.59;6145984;28;124533;-57
2021/01/12 05:18:18;;;;;;;;;62.00;48.80;;;;;1.12;40.36;98361.66;6159075;28;127051;-57
2021/01/12 05:21:23;;;;;;;;;61.00;46.00;;;;;0.91;40.19;98327.78;6161254;28;126715;-57
2021/01/12 05:24:25;;;;;;;;;58.60;45.80;;;;;1.47;40.38;98389.47;6149336;28;125512;-57
2021/01/12 05:27:30;;;;;;;;;56.00;44.00;;;;;1.60;39.77;98387.06;6161522;28;126283;-58
2021/01/12 05:30:32;;;;;;;;;57.25;46.00;;;;;1.50;39.57;98363.41;6161102;28;125239;-58
2021/01/12 05:33:33;;;;;;;;;59.80;44.60;;;;;1.65;39.83;98382.06;6161336;28;126278;-57
2021/01/12 05:37:00;;;;;;;;;60.00;44.25;;;;;1.68;39.52;98384.34;6160969;28;125568;-57
2021/01/12 05:40:02;;;;;;;;;57.00;45.00;;;;;1.71;39.49;98378.69;6155596;28;126386;-58
2021/01/12 05:43:09;;;;;;;;;55.50;45.00;;;;;1.72;39.61;98389.13;6149557;28;125996;-57
2021/01/12 05:46:13;;;;;;;;;70.00;52.60;;;;;1.64;39.34;98385.72;6154939;28;126977;-57
2021/01/12 05:49:17;;;;;;;;;72.00;56.40;;;;;1.23;39.47;98337.34;6141952;28;125963;-58
2021/01/12 05:52:19;;;;;;;;;73.40;57.40;;;;;1.41;39.13;98366.28;6159145;28;126261;-58
2021/01/12 05:55:21;;;;;;;;;72.20;57.20;;;;;1.36;39.10;98373.97;6159879;28;126653;-58
2021/01/12 05:58:32;;;;;;;;;72.40;56.00;;;;;1.27;39.59;98355.41;6159501;28;127254;-58
2021/01/12 06:01:47;;;;;;;;;73.60;58.80;;;;;1.19;39.31;98350.16;6160363;28;126713;-58
2021/01/12 06:04:52;;;;;;;;;71.00;55.60;;;;;1.12;39.96;98348.41;6159744;28;124008;-58
2021/01/12 06:07:53;;;;;;;;;72.00;53.60;;;;;1.05;40.06;98344.78;6159673;28;125596;-57
2021/01/12 06:10:57;;;;;;;;;71.00;55.00;;;;;1.05;40.12;98334.97;6146007;28;126702;-58
2021/01/12 06:14:05;;;;;;;;;70.80;54.80;;;;;1.07;40.21;98326.84;6159063;28;126687;-57
2021/01/12 06:17:09;;;;;;;;;70.00;55.80;;;;;0.85;40.39;98289.47;6159806;28;125058;-57
2021/01/12 06:20:16;;;;;;;;;72.40;57.00;;;;;1.18;40.27;98321.13;6126087;28;127051;-58
2021/01/12 06:23:36;;;;;;;;;73.00;57.60;;;;;1.12;40.22;98311.22;6159178;28;126594;-58
2021/01/12 06:26:41;;;;;;;;;72.00;56.00;;;;;1.19;40.35;98320.97;6154715;28;126119;-58
2021/01/12 06:29:44;;;;;;;;;73.20;56.40;;;;;1.08;40.11;98318.69;6159613;28;124553;-58
2021/01/12 06:32:46;;;;;;;;;73.25;56.00;;;;;0.90;40.73;98288.97;6155157;28;124912;-58
2021/01/12 06:35:51;;;;;;;;;73.00;58.60;;;;;1.05;40.89;98297.81;6143170;28;125291;-58
2021/01/12 06:38:56;;;;;;;;;71.00;55.00;;;;;1.06;40.89;98304.78;6159114;28;124060;-58
2021/01/12 06:42:04;;;;;;;;;74.40;58.60;;;;;1.10;40.97;98310.56;6158677;28;124816;-59
2021/01/12 06:45:08;;;;;;;;;74.20;61.00;;;;;0.92;40.71;98260.44;6159278;28;124723;-58
2021/01/12 06:48:13;;;;;;;;;74.25;57.00;;;;;1.23;41.27;98303.66;6172358;28;124656;-58
2021/01/12 06:51:14;;;;;;;;;72.20;57.00;;;;;1.37;41.09;98311.88;6158677;28;126477;-58
2021/01/12 06:54:18;;;;;;;;;71.80;56.00;;;;;1.29;41.46;98268.44;6152278;28;126626;-58
2021/01/12 06:57:22;;;;;;;;;71.60;55.00;;;;;1.69;40.66;98307.13;6150128;28;126282;-57
2021/01/12 07:00:24;;;;;;;;;71.50;55.00;;;;;1.75;40.70;98294.97;6154376;28;125935;-58
2021/01/12 07:03:30;;;;;;;;;72.00;57.80;;;;;1.83;40.23;98291.38;6158490;28;124752;-57
2021/01/12 07:06:33;;;;;;;;;72.80;56.80;;;;;1.89;40.17;98294.16;6156735;28;124663;-57
2021/01/12 07:09:45;;;;;;;;;71.50;56.50;;;;;1.93;40.09;98286.63;6156871;28;125789;-57
2021/01/12 07:12:47;;;;;;;;;70.40;52.00;;;;;2.11;39.81;98287.09;6146882;28;125050;-58
2021/01/12 07:15:50;;;;;;;;;67.60;52.00;;;;;2.43;39.41;98292.06;6157749;28;126839;-57
2021/01/12 07:19:04;;;;;;;;;70.00;53.60;;;;;2.59;39.42;98283.06;6157736;28;127251;-58
2021/01/12 07:22:18;;;;;;;;;69.00;52.40;;;;;2.76;39.53;98281.00;6155929;28;125235;-58
2021/01/12 07:25:24;;;;;;;;;65.20;51.80;;;;;3.04;39.35;98265.97;6158168;28;126840;-58
2021/01/12 07:28:26;;;;;;;;;62.20;48.00;;;;;3.86;38.01;98272.44;6154180;28;127129;-58
2021/01/12 07:31:27;;;;;;;;;62.00;48.00;;;;;5.15;35.47;98202.16;6157416;28;125361;-58
2021/01/12 07:34:35;;;;;;;;;63.20;49.80;;;;;7.71;32.65;98254.03;6157132;28;127162;-58
2021/01/12 07:37:40;;;;;;;;;65.00;50.00;;;;;9.66;30.02;98239.53;6157292;28;124844;-58
2021/01/12 07:40:42;;;;;;;;;62.80;48.60;;;;;11.28;27.23;98240.38;6156237;28;125231;-58
2021/01/12 07:43:43;;;;;;;;;54.00;42.75;;;;;12.66;24.98;98233.41;6145466;28;125997;-58
2021/01/12 07:46:44;;;;;;;;;50.00;39.00;;;;;13.87;23.61;98226.59;6153848;28;127668;-59
2021/01/12 07:49:48;;;;;;;;;47.00;38.00;;;;;14.80;22.06;98208.75;6156913;28;125493;-58
2021/01/12 07:52:50;;;;;;;;;51.20;40.00;;;;;15.74;20.94;98216.59;6157112;28;127294;-59
2021/01/12 07:55:52;;;;;;;;;52.40;39.40;;;;;16.39;20.10;98182.25;6155278;28;124840;-59
2021/01/12 07:58:53;;;;;;;;;48.80;37.80;;;;;17.42;19.38;98214.22;6137175;28;125404;-58
2021/01/12 08:01:56;;;;;;;;;49.00;39.00;;;;;18.15;18.96;98209.59;6143074;28;126649;-59
2021/01/12 08:04:58;;;;;;;;;42.00;35.00;;;;;18.62;18.32;98184.28;6152581;28;124496;-58
2021/01/12 08:08:06;;;;;;;;;35.50;31.00;;;;;19.52;16.94;98208.84;6141051;28;127360;-58
2021/01/12 08:11:07;;;;;;;;;34.60;30.40;;;;;20.16;16.43;98204.53;6147438;28;125989;-59
2021/01/12 08:14:10;;;;;;;;;39.20;32.40;;;;;20.79;15.85;98201.19;6157675;28;124698;-59
2021/01/12 08:17:18;;;;;;;;;39.40;33.00;;;;;21.30;15.51;98188.06;6157235;28;125294;-59
2021/01/12 08:20:20;;;;;;;;;39.75;33.50;;;;;21.54;15.28;98193.28;6139814;28;124602;-59
2021/01/12 08:23:24;;;;;;;;;34.00;30.00;;;;;21.87;14.93;98185.63;6156375;28;124941;-59
2021/01/12 08:26:27;;;;;;;;;34.00;30.00;;;;;22.12;14.37;98179.53;6156802;28;127613;-59
2021/01/12 08:29:32;;;;;;;;;36.00;31.00;;;;;22.40;14.16;98166.44;6157629;28;124750;-59
2021/01/12 08:32:36;;;;;;;;;38.20;31.60;;;;;22.53;13.88;98143.53;6157495;28;124878;-59
2021/01/12 08:35:49;;;;;;;;;36.50;30.00;;;;;22.98;14.03;98163.44;6157432;28;126161;-58
2021/01/12 08:38:53;;;;;;;;;37.20;32.00;;;;;23.35;13.76;98155.75;6157987;28;127341;-58
2021/01/12 08:41:55;;;;;;;;;33.00;30.00;;;;;23.44;13.40;98124.34;6157693;28;124445;-58
2021/01/12 08:44:57;;;;;;;;;32.40;29.00;;;;;24.04;12.76;98153.78;6156309;28;127116;-59
2021/01/12 08:48:15;;;;;;;;;33.25;29.25;;;;;24.24;12.95;98144.03;6138943;28;125417;-59
2021/01/12 08:51:18;;;;;;;;;31.50;30.00;;;;;24.14;13.02;98131.41;6157087;28;124829;-59
2021/01/12 08:54:20;;;;;;;;;35.60;30.00;;;;;24.14;12.45;98079.88;6157590;28;124709;-59
2021/01/12 08:57:22;;;;;;;;;36.50;32.00;;;;;24.78;12.61;98128.56;6157355;28;127229;-59
2021/01/12 09:00:30;;;;;;;;;36.60;32.00;;;;;24.91;12.39;98122.84;6157103;28;125625;-59
2021/01/12 09:03:32;;;;;;;;;35.00;30.40;;;;;25.08;12.00;98118.34;6149265;28;124623;-59
2021/01/12 09:06:34;;;;;;;;;37.00;31.00;;;;;25.33;12.16;98126.44;6156402;28;128033;-59
2021/01/12 09:09:35;;;;;;;;;33.60;30.00;;;;;25.32;12.00;98122.06;6155447;28;125943;-59
2021/01/12 09:12:42;;;;;;;;;40.40;32.00;;;;;25.41;11.97;98119.25;6160747;28;126202;-59
2021/01/12 09:15:48;;;;;;;;;39.60;33.00;;;;;25.63;11.98;98124.44;6158691;28;125541;-59
2021/01/12 09:18:49;;;;;;;;;33.60;30.60;;;;;25.79;11.76;98122.66;6160664;28;126367;-59
2021/01/12 09:21:51;;;;;;;;;37.50;30.25;;;;;25.76;11.66;98086.63;6160811;28;124785;-59
2021/01/12 09:24:54;;;;;;;;;31.80;30.00;;;;;26.05;11.71;98105.81;6160117;28;125075;-59
2021/01/12 09:28:10;;;;;;;;;37.25;30.00;;;;;25.94;11.44;98115.69;6160335;28;124202;-59
2021/01/12 09:31:21;;;;;;;;;33.25;28.00;;;;;26.14;11.77;98105.75;6160036;28;125162;-59
2021/01/12 09:34:23;;;;;;;;;29.60;28.20;;;;;26.16;11.60;98104.22;6142970;28;126374;-60
2021/01/12 09:37:25;;;;;;;;;32.00;29.00;;;;;26.11;11.40;98082.34;6160903;28;124882;-60
2021/01/12 09:40:27;;;;;;;;;32.40;29.00;;;;;26.20;11.70;98091.34;6158227;28;126418;-60
2021/01/12 09:43:29;;;;;;;;;34.00;28.00;;;;;26.19;11.89;98088.94;6162698;28;125080;-60
2021/01/12 09:46:31;;;;;;;;;31.25;27.25;;;;;26.33;11.33;98086.69;6159770;28;126520;-59
2021/01/12 09:49:32;;;;;;;;;30.00;27.60;;;;;26.48;11.21;98074.94;6159382;28;125620;-59
2021/01/12 09:52:35;;;;;;;;;27.00;24.40;;;;;26.58;11.10;98074.50;6160086;28;126284;-59
2021/01/12 09:55:36;;;;;;;;;29.80;25.60;;;;;26.45;11.16;98064.56;6159846;28;127826;-59
2021/01/12 09:58:45;;;;;;;;;26.00;23.00;;;;;26.55;11.22;98066.88;6160022;28;126458;-60
2021/01/12 10:01:54;;;;;;;;;23.60;23.00;;;;;26.50;10.83;98067.09;6159044;28;126742;-60
2021/01/12 10:04:55;;;;;;;;;24.80;22.80;;;;;26.58;11.20;98052.38;6159847;28;126032;-60
2021/01/12 10:07:57;;;;;;;;;28.00;23.00;;;;;26.52;11.05;98061.25;6160195;28;127557;-59
2021/01/12 10:10:58;;;;;;;;;22.00;22.00;;;;;26.56;11.39;98042.81;6159663;28;126795;-59
2021/01/12 10:14:00;;;;;;;;;26.00;22.00;;;;;26.56;10.68;98040.03;6160383;28;127417;-59
2021/01/12 10:17:02;;;;;;;;;24.25;23.00;;;;;26.82;10.90;98036.91;6150803;28;126635;-59
2021/01/12 10:20:05;;;;;;;;;18.40;17.00;;;;;26.81;10.72;98029.75;6157250;28;127550;-60
2021/01/12 10:23:07;;;;;;;;;21.00;18.00;;;;;26.50;10.96;98025.63;6157782;28;127147;-59
2021/01/12 10:26:13;;;;;;;;;18.60;16.60;;;;;25.39;11.74;98006.44;6158206;28;126705;-60
2021/01/12 10:29:14;;;;;;;;;18.50;17.50;;;;;24.15;12.49;98007.13;6158598;28;126106;-59
2021/01/12 10:32:16;;;;;;;;;18.20;16.80;;;;;23.13;13.39;98009.00;6158239;28;126843;-60
2021/01/12 10:35:19;;;;;;;;;21.60;19.00;;;;;22.11;13.98;97999.47;6159581;28;125991;-60
2021/01/12 10:38:20;;;;;;;;;19.50;17.00;;;;;21.07;14.69;97995.31;6164038;28;126483;-59
2021/01/12 10:41:22;;;;;;;;;17.80;16.80;;;;;19.81;15.50;97987.13;6159981;28;127192;-60
2021/01/12 10:44:23;;;;;;;;;20.00;18.00;;;;;18.56;16.53;97983.50;6143298;28;128537;-59
2021/01/12 10:47:25;;;;;;;;;20.67;16.33;;;;;17.60;17.48;97977.28;6158260;28;124799;-59
2021/01/12 10:50:27;;;;;;;;;18.00;17.00;;;;;16.90;18.15;97965.13;6149087;28;127221;-59
2021/01/12 10:53:28;;;;;;;;;18.50;14.75;;;;;16.14;19.13;97962.88;6158626;28;127187;-59
2021/01/12 10:56:30;;;;;;;;;17.60;16.40;;;;;15.40;19.94;97958.22;6160471;28;125916;-59
2021/01/12 10:59:31;;;;;;;;;18.00;16.60;;;;;14.80;20.79;97953.69;6159532;28;126646;-59
2021/01/12 11:02:33;;;;;;;;;14.25;14.00;;;;;14.43;21.32;97939.53;6158028;28;126529;-59
2021/01/12 11:05:35;;;;;;;;;16.25;14.25;;;;;14.15;22.00;97938.94;6164294;28;126609;-59
2021/01/12 11:08:37;;;;;;;;;15.00;15.00;;;;;13.96;22.41;97935.09;6158462;28;125592;-59
2021/01/12 11:11:38;;;;;;;;;16.20;15.00;;;;;13.83;22.62;97933.69;6159259;28;126543;-59
2021/01/12 11:14:40;;;;;;;;;18.60;16.40;;;;;13.62;23.08;97921.16;6158410;28;127302;-59
2021/01/12 11:17:45;;;;;;;;;17.80;15.80;;;;;13.22;23.56;97921.75;6159265;28;124442;-59
2021/01/12 11:20:47;;;;;;;;;15.25;14.00;;;;;12.97;24.26;97930.50;6157632;28;124674;-59
2021/01/12 11:23:48;;;;;;;;;15.75;14.75;;;;;12.83;24.54;97914.97;6157862;28;125887;-59
2021/01/12 11:26:52;;;;;;;;;18.00;17.00;;;;;12.46;25.26;97910.34;6161822;28;127452;-59
2021/01/12 11:29:54;;;;;;;;;18.00;15.00;;;;;12.37;25.40;97911.06;6161117;28;126377;-58
2021/01/12 11:32:58;;;;;;;;;17.60;16.00;;;;;12.21;25.69;97901.22;6157901;28;126620;-58
2021/01/12 11:36:01;;;;;;;;;17.60;16.00;;;;;11.95;26.30;97892.03;6158949;28;124757;-58
2021/01/12 11:39:15;;;;;;;;;15.00;13.00;;;;;11.90;26.51;97892.00;6158743;28;126972;-58
2021/01/12 11:42:16;;;;;;;;;13.00;12.00;;;;;11.90;26.53;97889.28;6158362;28;126003;-59
2021/01/12 11:45:18;;;;;;;;;16.60;14.60;;;;;11.69;27.07;97882.81;6157834;28;127984;-58
2021/01/12 11:48:19;;;;;;;;;15.00;13.00;;;;;11.76;27.02;97883.47;6156811;28;125528;-58
2021/01/12 11:51:21;;;;;;;;;15.00;12.40;;;;;11.62;27.29;97880.31;6158151;28;126774;-58
2021/01/12 11:54:22;;;;;;;;;12.00;11.00;;;;;11.56;27.63;97881.34;6127822;28;125669;-58
2021/01/12 11:57:23;;;;;;;;;12.80;10.80;;;;;11.64;27.56;97870.06;6158786;28;129068;-58
2021/01/12 12:00:25;;;;;;;;;11.80;10.00;;;;;11.69;27.45;97867.44;6141949;28;124412;-58
2021/01/12 12:03:26;;;;;;;;;11.00;9.75;;;;;11.78;27.39;97861.63;6158055;28;127123;-59
2021/01/12 12:06:28;;;;;;;;;11.60;11.00;;;;;11.90;27.28;97848.78;6156828;28;127167;-59
2021/01/12 12:09:32;;;;;;;;;13.20;11.80;;;;;11.83;27.20;97834.66;6155939;28;125481;-58
2021/01/12 12:12:34;;;;;;;;;15.50;13.50;;;;;11.95;27.35;97836.13;6125722;28;123738;-58
2021/01/12 12:15:35;;;;;;;;;11.00;10.00;;;;;11.96;27.61;97818.06;6156612;28;125444;-58
2021/01/12 12:18:37;;;;;;;;;11.25;10.00;;;;;11.92;27.36;97812.34;6164295;28;125806;-58
2021/01/12 12:21:52;;;;;;;;;11.00;10.20;;;;;11.77;27.66;97806.00;6161519;28;128839;-58
2021/01/12 12:24:53;;;;;;;;;13.00;11.00;;;;;11.91;27.55;97812.59;6156870;28;126916;-59
2021/01/12 12:27:55;;;;;;;;;10.40;10.00;;;;;11.88;27.88;97805.00;6157548;28;127701;-58
2021/01/12 12:30:57;;;;;;;;;10.60;10.20;;;;;11.53;27.89;97744.16;6155952;28;126637;-58
2021/01/12 12:33:59;;;;;;;;;13.00;11.60;;;;;11.93;27.97;97795.06;6157837;28;128145;-58
2021/01/12 12:37:01;;;;;;;;;11.00;9.00;;;;;11.86;28.04;97785.56;6157682;28;126889;-58
2021/01/12 12:40:03;;;;;;;;;9.80;7.80;;;;;11.84;28.22;97783.09;6157175;28;126540;-59
2021/01/12 12:43:04;;;;;;;;;8.60;8.60;;;;;11.91;28.10;97791.00;6158093;28;126719;-58
2021/01/12 12:46:06;;;;;;;;;7.20;7.00;;;;;11.81;28.21;97786.31;6159142;28;126064;-58
2021/01/12 12:49:08;;;;;;;;;8.25;8.00;;;;;11.82;28.13;97785.25;6161886;28;126171;-58
2021/01/12 12:52:09;;;;;;;;;8.00;8.00;;;;;11.78;28.02;97773.31;6161934;28;126681;-59
2021/01/12 12:55:11;;;;;;;;;9.00;7.60;;;;;11.83;28.06;97778.75;6162193;28;127508;-58
2021/01/12 12:58:13;;;;;;;;;9.00;9.00;;;;;11.75;28.36;97784.63;6159069;28;127573;-58
2021/01/12 13:01:15;;;;;;;;;8.20;8.00;;;;;11.46;28.20;97757.06;6161681;28;127159;-59
2021/01/12 13:04:18;;;;;;;;;9.00;8.20;;;;;11.38;28.35;97737.81;6160197;28;126412;-58
2021/01/12 13:07:19;;;;;;;;;9.00;8.00;;;;;11.58;28.63;97768.50;6160434;28;127230;-58
2021/01/12 13:10:21;;;;;;;;;10.25;9.00;;;;;11.59;28.47;97767.44;6159210;28;126616;-58
2021/01/12 13:13:23;;;;;;;;;11.40;10.00;;;;;11.44;28.84;97761.06;6165355;28;126689;-58
2021/01/12 13:16:26;;;;;;;;;11.00;10.00;;;;;11.29;28.87;97735.56;6157674;28;126670;-58
2021/01/12 13:19:32;;;;;;;;;10.40;9.00;;;;;11.45;28.87;97747.34;6161496;28;124881;-58
2021/01/12 13:22:34;;;;;;;;;10.00;8.80;;;;;11.33;28.64;97718.88;6160694;28;125107;-58
2021/01/12 13:25:36;;;;;;;;;11.60;10.60;;;;;11.62;28.72;97747.25;6159459;28;126611;-59
2021/01/12 13:28:38;;;;;;;;;9.00;9.00;;;;;11.56;28.86;97735.56;6151050;28;125268;-58
2021/01/12 13:31:40;;;;;;;;;11.00;11.00;;;;;11.70;28.78;97741.34;6160283;28;125362;-59
2021/01/12 13:34:42;;;;;;;;;16.00;14.00;;;;;11.71;28.76;97740.28;6161312;28;127369;-59
2021/01/12 13:37:44;;;;;;;;;16.80;14.00;;;;;11.74;29.21;97734.41;6160873;28;125979;-58
2021/01/12 13:40:46;;;;;;;;;16.60;15.00;;;;;11.77;28.95;97725.81;6160499;28;125224;-58
2021/01/12 13:43:47;;;;;;;;;16.00;14.40;;;;;11.80;29.10;97730.69;6161032;28;127509;-58
2021/01/12 13:46:49;;;;;;;;;18.00;17.00;;;;;11.59;29.22;97704.53;6161174;28;126371;-58
2021/01/12 13:49:55;;;;;;;;;20.40;18.00;;;;;11.75;29.10;97719.03;6160714;28;126532;-59
2021/01/12 13:52:57;;;;;;;;;21.00;18.00;;;;;11.68;29.12;97716.50;6160382;28;125955;-58
2021/01/12 13:56:04;;;;;;;;;22.20;21.00;;;;;11.60;29.35;97711.56;6157512;28;126022;-58
2021/01/12 13:59:08;;;;;;;;;25.00;20.25;;;;;11.62;28.93;97712.16;6159552;28;125328;-57